Time;durP1;ratioP1;P1;durP2;ratioP2;P2;SDS_P1;SDS_P2;PMS_P1;PMS_P2;Temp;Humidity;BMP_temperature;BMP_pressure;BME280_temperature;BME280_humidity;BME280_pressure;Samples;Min_cycle;Max_cycle;Signal;HPM_P1;HPM_P2
2022/11/30 04:02:55;;;;;;;;;;;6.80;99.90;;;;;;5001415;23;19931;-64
2022/11/30 04:05:22;;;;;;;;;;;6.80;99.90;;;;;;4922391;29;19927;-64
2022/11/30 04:07:49;;;;;;;;;;;6.80;99.90;;;;;;4916954;29;20022;-64
2022/11/30 04:10:16;;;;;;;;;;;6.80;99.90;;;;;;4922029;29;20420;-65
2022/11/30 04:12:42;;;;;;;;;;;6.90;99.90;;;;;;4909964;29;19967;-64
2022/11/30 04:15:09;;;;;;;;;;;6.90;99.90;;;;;;4916281;29;19927;-65
2022/11/30 04:17:36;;;;;;;;;;;6.90;99.90;;;;;;4919957;29;19927;-65
2022/11/30 04:20:05;;;;;;;;;;;6.90;99.90;;;;;;4916015;29;19933;-65
2022/11/30 04:22:32;;;;;;;;;;;6.90;99.90;;;;;;4916208;29;19955;-64
2022/11/30 04:24:59;;;;;;;;;;;6.90;99.90;;;;;;4916603;29;19927;-64
2022/11/30 04:27:28;;;;;;;;;;;6.90;99.90;;;;;;4918174;29;19933;-64
2022/11/30 04:29:54;;;;;;;;;;;6.80;99.90;;;;;;4916112;29;20335;-65
2022/11/30 04:32:21;;;;;;;;;;;6.80;99.90;;;;;;4922826;29;19931;-64
2022/11/30 04:34:48;;;;;;;;;;;6.80;99.90;;;;;;4916023;29;20322;-65
2022/11/30 04:37:16;;;;;;;;;;;6.90;99.90;;;;;;4916457;29;19931;-65
2022/11/30 04:39:43;;;;;;;;;;;6.90;99.90;;;;;;4915751;29;20342;-65
2022/11/30 04:42:10;;;;;;;;;;;6.90;99.90;;;;;;4915751;29;19927;-65
2022/11/30 04:44:37;;;;;;;;;;;6.90;99.90;;;;;;4917762;29;19942;-65
2022/11/30 04:47:04;;;;;;;;;;;6.90;99.90;;;;;;4916023;29;19928;-63
2022/11/30 04:49:31;;;;;;;;;;;6.90;99.90;;;;;;4921113;29;20452;-65
2022/11/30 04:51:57;;;;;;;;;;;6.90;99.90;;;;;;4915423;29;19935;-64
2022/11/30 04:54:25;;;;;;;;;;;6.90;99.90;;;;;;4915401;29;19934;-64
2022/11/30 04:56:52;;;;;;;;;;;6.90;99.90;;;;;;4915825;29;19927;-65
2022/11/30 04:59:19;;;;;;;;;;;6.90;99.90;;;;;;4928005;29;19945;-64
2022/11/30 05:01:46;;;;;;;;;;;6.90;99.90;;;;;;4916270;29;19927;-64
2022/11/30 05:04:12;;;;;;;;;;;7.00;99.90;;;;;;4918099;29;19931;-65
2022/11/30 05:06:39;;;;;;;;;;;6.90;99.90;;;;;;4921313;29;19927;-65
2022/11/30 05:09:06;;;;;;;;;;;6.90;99.90;;;;;;4924603;29;19934;-64
2022/11/30 05:11:34;;;;;;;;;;;6.90;99.90;;;;;;4914178;29;19928;-62
2022/11/30 05:14:01;;;;;;;;;;;7.00;99.90;;;;;;4921534;23;19947;-65
2022/11/30 05:16:27;;;;;;;;;;;6.90;99.90;;;;;;4896067;29;19978;-65
2022/11/30 05:18:54;;;;;;;;;;;7.00;99.90;;;;;;4899790;29;20403;-64
2022/11/30 05:21:21;;;;;;;;;;;7.00;99.90;;;;;;4906490;29;19927;-64
2022/11/30 05:23:47;;;;;;;;;;;7.00;99.90;;;;;;4899574;29;19943;-65
2022/11/30 05:26:14;;;;;;;;;;;7.00;99.90;;;;;;4896801;29;19927;-65
2022/11/30 05:28:42;;;;;;;;;;;7.00;99.90;;;;;;4896354;29;19931;-65
2022/11/30 05:31:09;;;;;;;;;;;7.00;99.90;;;;;;4898021;29;19954;-65
2022/11/30 05:33:36;;;;;;;;;;;6.90;99.90;;;;;;4895985;29;20458;-65
2022/11/30 05:36:03;;;;;;;;;;;7.00;99.90;;;;;;4896210;29;19928;-65
2022/11/30 05:38:30;;;;;;;;;;;7.00;99.90;;;;;;4891092;29;19994;-65
2022/11/30 05:40:59;;;;;;;;;;;7.00;99.90;;;;;;4895590;29;19928;-65
2022/11/30 05:43:26;;;;;;;;;;;7.00;99.90;;;;;;4895732;29;20363;-64
2022/11/30 05:45:58;;;;;;;;;;;6.90;99.90;;;;;;4895881;29;20021;-65
2022/11/30 05:48:25;;;;;;;;;;;6.90;99.90;;;;;;4902331;29;20349;-64
2022/11/30 05:50:52;;;;;;;;;;;6.80;99.90;;;;;;4903140;29;19927;-65
2022/11/30 05:53:18;;;;;;;;;;;6.80;99.90;;;;;;4895809;29;19927;-64
2022/11/30 05:55:45;;;;;;;;;;;6.70;99.90;;;;;;4895991;29;19928;-65
2022/11/30 05:58:12;;;;;;;;;;;6.70;99.90;;;;;;4895345;29;19984;-65
2022/11/30 06:00:39;;;;;;;;;;;6.70;99.90;;;;;;4895596;29;19935;-64
2022/11/30 06:03:10;;;;;;;;;;;6.60;99.90;;;;;;4893089;29;19927;-65
2022/11/30 06:05:36;;;;;;;;;;;6.60;99.90;;;;;;4895473;29;19935;-65
2022/11/30 06:08:03;;;;;;;;;;;6.60;99.90;;;;;;4895424;29;20343;-66
2022/11/30 06:10:30;;;;;;;;;;;6.60;99.90;;;;;;4892782;29;19934;-65
2022/11/30 06:12:57;;;;;;;;;;;6.60;99.90;;;;;;4893517;29;19928;-65
2022/11/30 06:15:24;;;;;;;;;;;6.60;99.90;;;;;;4894500;29;19935;-67
2022/11/30 06:17:51;;;;;;;;;;;6.60;99.90;;;;;;4894549;29;20314;-67
2022/11/30 06:20:19;;;;;;;;;;;6.60;99.90;;;;;;4894170;29;19962;-67
2022/11/30 06:22:46;;;;;;;;;;;6.60;99.90;;;;;;4895072;29;20358;-67
2022/11/30 06:25:13;;;;;;;;;;;6.50;99.90;;;;;;4895898;29;19935;-67
2022/11/30 06:27:42;;;;;;;;;;;6.50;99.90;;;;;;4894426;29;19934;-67
2022/11/30 06:30:09;;;;;;;;;;;6.50;99.90;;;;;;4890565;29;20451;-67
2022/11/30 06:32:36;;;;;;;;;;;6.50;99.90;;;;;;4894145;29;19939;-67
2022/11/30 06:35:03;;;;;;;;;;;6.50;99.90;;;;;;4898105;29;19988;-67
2022/11/30 06:37:35;;;;;;;;;;;6.50;99.90;;;;;;4894073;29;20296;-67
2022/11/30 06:40:01;;;;;;;;;;;6.50;99.90;;;;;;4897042;29;20321;-67
2022/11/30 06:42:28;;;;;;;;;;;6.50;99.90;;;;;;4894985;29;19928;-67
2022/11/30 06:44:55;;;;;;;;;;;6.50;99.90;;;;;;4898142;29;19927;-66
2022/11/30 06:47:22;;;;;;;;;;;6.60;99.90;;;;;;4897288;29;19927;-67
2022/11/30 06:49:49;;;;;;;;;;;6.60;99.90;;;;;;4896143;29;19927;-66
2022/11/30 06:52:16;;;;;;;;;;;6.50;99.90;;;;;;4893485;29;20306;-66
2022/11/30 06:54:44;;;;;;;;;;;6.50;99.90;;;;;;4894417;29;19928;-67
2022/11/30 06:57:11;;;;;;;;;;;6.50;99.90;;;;;;4897885;29;19927;-66
2022/11/30 06:59:41;;;;;;;;;;;6.60;99.90;;;;;;4886476;29;19927;-67
2022/11/30 07:02:09;;;;;;;;;;;6.50;99.90;;;;;;4890030;29;19928;-67
2022/11/30 07:04:36;;;;;;;;;;;6.60;99.90;;;;;;4893014;29;20311;-67
2022/11/30 07:07:03;;;;;;;;;;;6.60;99.90;;;;;;4894170;29;19985;-66
2022/11/30 07:09:31;;;;;;;;;;;6.50;99.90;;;;;;4893515;29;20352;-67
2022/11/30 07:11:59;;;;;;;;;;;6.50;99.90;;;;;;4893608;29;19951;-66
2022/11/30 07:14:26;;;;;;;;;;;6.50;99.90;;;;;;4901103;29;19946;-67
2022/11/30 07:16:52;;;;;;;;;;;6.50;99.90;;;;;;4888850;29;19935;-67
2022/11/30 07:19:19;;;;;;;;;;;6.50;99.90;;;;;;4893521;29;19928;-66
2022/11/30 07:21:46;;;;;;;;;;;6.50;99.90;;;;;;4893625;29;19927;-67
2022/11/30 07:27:00;;;;;;;;;;;6.50;99.90;;;;;;4893664;29;20255;-67
2022/11/30 07:29:27;;;;;;;;;;;6.50;99.90;;;;;;4897514;29;19928;-67
2022/11/30 07:31:54;;;;;;;;;;;6.50;99.90;;;;;;4897824;29;19928;-66
2022/11/30 07:34:21;;;;;;;;;;;6.50;99.90;;;;;;4897434;29;19927;-67
2022/11/30 07:36:48;;;;;;;;;;;6.40;99.90;;;;;;4898017;29;19934;-66
2022/11/30 07:39:15;;;;;;;;;;;6.40;99.90;;;;;;4894443;29;19927;-67
2022/11/30 07:41:42;;;;;;;;;;;6.40;99.90;;;;;;4895796;29;19967;-65
2022/11/30 07:44:11;;;;;;;;;;;6.40;99.90;;;;;;4897028;29;19928;-67
2022/11/30 07:46:38;;;;;;;;;;;6.40;99.90;;;;;;4897263;29;20347;-66
2022/11/30 07:49:06;;;;;;;;;;;6.40;99.90;;;;;;4895730;29;19935;-67
2022/11/30 07:51:33;;;;;;;;;;;6.40;99.90;;;;;;4900538;29;19934;-66
2022/11/30 07:54:00;;;;;;;;;;;6.40;99.90;;;;;;4897027;29;20026;-66
2022/11/30 07:56:28;;;;;;;;;;;6.40;99.90;;;;;;4896985;29;19931;-67
2022/11/30 07:58:55;;;;;;;;;;;6.40;99.90;;;;;;4901921;29;19964;-66
2022/11/30 08:01:25;;;;;;;;;;;6.40;99.90;;;;;;4896986;29;19931;-67
2022/11/30 08:03:52;;;;;;;;;;;6.40;99.90;;;;;;4897016;29;19934;-67
2022/11/30 08:06:19;;;;;;;;;;;6.40;99.90;;;;;;4898298;29;19927;-67
2022/11/30 08:08:47;;;;;;;;;;;6.50;99.90;;;;;;4898769;29;19927;-66
2022/11/30 08:11:15;;;;;;;;;;;6.50;99.90;;;;;;4900329;29;19931;-67
2022/11/30 08:13:42;;;;;;;;;;;6.50;99.90;;;;;;4894961;29;20355;-67
2022/11/30 08:16:10;;;;;;;;;;;6.60;99.90;;;;;;4896701;29;19954;-67
2022/11/30 08:18:38;;;;;;;;;;;6.60;99.90;;;;;;4894609;29;19990;-67
2022/11/30 08:21:06;;;;;;;;;;;6.60;99.90;;;;;;4900063;29;19935;-67
2022/11/30 08:23:33;;;;;;;;;;;6.70;99.90;;;;;;4901204;29;19927;-67
2022/11/30 08:26:02;;;;;;;;;;;6.70;99.90;;;;;;4896829;29;20410;-67
2022/11/30 08:28:29;;;;;;;;;;;6.70;99.90;;;;;;4896449;29;19927;-66
2022/11/30 08:30:59;;;;;;;;;;;6.70;99.90;;;;;;4896127;29;19931;-67
2022/11/30 08:33:25;;;;;;;;;;;6.70;99.90;;;;;;4897340;29;20351;-67
2022/11/30 08:35:54;;;;;;;;;;;6.70;99.90;;;;;;4897477;29;19938;-67
2022/11/30 08:38:21;;;;;;;;;;;6.70;99.90;;;;;;4896537;29;20322;-67
2022/11/30 08:40:47;;;;;;;;;;;6.70;99.90;;;;;;4895921;29;19942;-67
2022/11/30 08:43:14;;;;;;;;;;;6.70;99.90;;;;;;4903119;29;19931;-67
2022/11/30 08:45:41;;;;;;;;;;;6.80;99.90;;;;;;4896069;29;19928;-68
2022/11/30 08:48:08;;;;;;;;;;;6.80;99.90;;;;;;4896182;29;19927;-65
2022/11/30 08:50:34;;;;;;;;;;;6.90;99.90;;;;;;4896456;29;19939;-67
2022/11/30 08:53:03;;;;;;;;;;;6.90;99.90;;;;;;4895691;29;19928;-67
2022/11/30 08:55:29;;;;;;;;;;;6.90;99.90;;;;;;4895597;29;19975;-67
2022/11/30 08:57:56;;;;;;;;;;;6.90;99.90;;;;;;4901098;29;19950;-67
2022/11/30 09:00:23;;;;;;;;;;;6.90;99.90;;;;;;4898585;29;19931;-67
2022/11/30 09:02:50;;;;;;;;;;;7.00;99.90;;;;;;4895426;29;19935;-67
2022/11/30 09:05:17;;;;;;;;;;;7.00;99.90;;;;;;4902318;29;19927;-67
2022/11/30 09:07:43;;;;;;;;;;;7.00;99.90;;;;;;4895688;29;19936;-67
2022/11/30 09:10:12;;;;;;;;;;;7.00;99.90;;;;;;4895433;29;19934;-67
2022/11/30 09:12:40;;;;;;;;;;;7.10;99.90;;;;;;4895301;29;20450;-67
2022/11/30 09:15:07;;;;;;;;;;;7.10;99.90;;;;;;4900773;29;19927;-67
2022/11/30 09:17:34;;;;;;;;;;;7.10;99.90;;;;;;4895266;29;19932;-67
2022/11/30 09:20:01;;;;;;;;;;;7.10;99.90;;;;;;4895146;29;19928;-67
2022/11/30 09:22:28;;;;;;;;;;;7.10;99.90;;;;;;4895239;29;19943;-67
2022/11/30 09:24:55;;;;;;;;;;;7.00;99.90;;;;;;4894358;29;19931;-66
2022/11/30 09:27:29;;;;;;;;;;;7.00;99.90;;;;;;4893216;29;19927;-67
2022/11/30 09:29:56;;;;;;;;;;;7.00;99.90;;;;;;4893879;29;20388;-67
2022/11/30 09:32:22;;;;;;;;;;;7.00;99.90;;;;;;4895029;29;19927;-66
2022/11/30 09:34:49;;;;;;;;;;;7.00;99.90;;;;;;4897807;29;19931;-66
2022/11/30 09:37:16;;;;;;;;;;;7.00;99.90;;;;;;4898807;29;19927;-67
2022/11/30 09:39:43;;;;;;;;;;;7.00;99.90;;;;;;4895703;29;20167;-67
2022/11/30 09:42:17;;;;;;;;;;;7.00;99.90;;;;;;4899385;29;19928;-66
2022/11/30 09:44:49;;;;;;;;;;;6.90;99.90;;;;;;4892824;29;19931;-64
2022/11/30 09:47:25;;;;;;;;;;;6.90;99.90;;;;;;4895826;29;20442;-66
2022/11/30 09:49:52;;;;;;;;;;;6.90;99.90;;;;;;4889944;29;19951;-66
2022/11/30 09:52:24;;;;;;;;;;;6.90;99.90;;;;;;4895016;29;19927;-66
2022/11/30 09:54:50;;;;;;;;;;;6.90;99.90;;;;;;4895187;29;19932;-66
2022/11/30 09:57:23;;;;;;;;;;;6.90;99.90;;;;;;4897928;29;19932;-67
2022/11/30 09:59:54;;;;;;;;;;;7.00;99.90;;;;;;4895818;29;20338;-67
2022/11/30 10:02:22;;;;;;;;;;;6.90;99.90;;;;;;4896756;29;19958;-66
2022/11/30 10:04:49;;;;;;;;;;;6.90;99.90;;;;;;4894979;29;19928;-66
2022/11/30 10:07:24;;;;;;;;;;;6.90;99.90;;;;;;4891270;29;20348;-66
2022/11/30 10:09:54;;;;;;;;;;;6.90;99.90;;;;;;4900567;29;19931;-66
2022/11/30 10:12:24;;;;;;;;;;;6.90;99.90;;;;;;4894394;29;19934;-66
2022/11/30 10:15:12;;;;;;;;;;;6.80;99.90;;;;;;4894420;29;19931;-65
2022/11/30 10:17:43;;;;;;;;;;;6.80;99.90;;;;;;4888192;29;19935;-67
2022/11/30 10:20:19;;;;;;;;;;;6.80;99.90;;;;;;4893608;29;19927;-66
2022/11/30 10:22:54;;;;;;;;;;;6.80;99.90;;;;;;4893987;29;19932;-67
2022/11/30 10:25:23;;;;;;;;;;;6.80;99.90;;;;;;4899407;29;19938;-67
2022/11/30 10:27:51;;;;;;;;;;;6.80;99.90;;;;;;4895049;29;19935;-65
2022/11/30 10:30:21;;;;;;;;;;;6.70;99.90;;;;;;4894046;29;20340;-66
2022/11/30 10:32:50;;;;;;;;;;;6.70;99.90;;;;;;4893962;29;20030;-66
2022/11/30 10:35:20;;;;;;;;;;;6.60;99.90;;;;;;4894319;29;19970;-66
2022/11/30 10:37:49;;;;;;;;;;;6.60;99.90;;;;;;4896294;29;19942;-68
2022/11/30 10:40:18;;;;;;;;;;;6.60;99.90;;;;;;4897732;29;19927;-67
2022/11/30 10:42:48;;;;;;;;;;;6.60;99.90;;;;;;4896814;29;20467;-66
2022/11/30 10:45:17;;;;;;;;;;;6.60;99.90;;;;;;4894595;29;20298;-66
2022/11/30 10:47:46;;;;;;;;;;;6.60;99.90;;;;;;4895238;29;19932;-65
2022/11/30 10:50:15;;;;;;;;;;;6.60;99.90;;;;;;4900412;29;19931;-67
2022/11/30 10:52:44;;;;;;;;;;;6.60;99.90;;;;;;4892686;29;19932;-66
2022/11/30 10:55:14;;;;;;;;;;;6.50;99.90;;;;;;4893967;29;19931;-66
2022/11/30 10:57:41;;;;;;;;;;;6.60;99.90;;;;;;4894276;29;20006;-67
2022/11/30 11:00:13;;;;;;;;;;;6.60;99.90;;;;;;4899776;29;19927;-67
2022/11/30 11:02:41;;;;;;;;;;;6.60;99.90;;;;;;4896377;29;20391;-66
2022/11/30 11:05:09;;;;;;;;;;;6.60;99.90;;;;;;4902007;29;20415;-67
2022/11/30 11:07:44;;;;;;;;;;;6.60;99.90;;;;;;4898578;29;19931;-67
2022/11/30 11:10:13;;;;;;;;;;;6.70;99.90;;;;;;4900229;29;19934;-66
2022/11/30 11:12:39;;;;;;;;;;;6.70;99.90;;;;;;4897365;29;19983;-67
2022/11/30 11:15:10;;;;;;;;;;;6.70;99.90;;;;;;4896434;29;19927;-66
2022/11/30 11:17:37;;;;;;;;;;;6.70;99.90;;;;;;4896858;29;20387;-67
2022/11/30 11:20:06;;;;;;;;;;;6.70;99.90;;;;;;4898057;29;20104;-66
2022/11/30 11:22:34;;;;;;;;;;;6.70;99.90;;;;;;4896346;29;20284;-67
2022/11/30 11:25:10;;;;;;;;;;;6.80;99.90;;;;;;4897734;29;19935;-67
2022/11/30 11:27:37;;;;;;;;;;;6.80;99.90;;;;;;4897229;29;19928;-68
2022/11/30 11:30:06;;;;;;;;;;;6.80;99.90;;;;;;4897498;29;19927;-66
2022/11/30 11:32:33;;;;;;;;;;;6.80;99.90;;;;;;4897726;29;19935;-66
2022/11/30 11:35:00;;;;;;;;;;;6.80;99.90;;;;;;4897422;29;19928;-67
2022/11/30 11:37:29;;;;;;;;;;;6.80;99.90;;;;;;4897668;29;19927;-67
2022/11/30 11:39:57;;;;;;;;;;;6.90;99.90;;;;;;4896986;29;19927;-67
2022/11/30 11:42:26;;;;;;;;;;;6.90;99.90;;;;;;4897714;29;19931;-67
2022/11/30 11:44:55;;;;;;;;;;;6.90;99.90;;;;;;4890774;29;19939;-66
2022/11/30 11:47:24;;;;;;;;;;;6.90;99.90;;;;;;4901680;29;19931;-66
2022/11/30 11:49:51;;;;;;;;;;;6.90;99.90;;;;;;4896908;29;19934;-67
2022/11/30 11:52:18;;;;;;;;;;;6.90;99.90;;;;;;4896967;29;19932;-66
2022/11/30 11:54:47;;;;;;;;;;;6.90;99.90;;;;;;4896844;29;19931;-67
2022/11/30 11:57:15;;;;;;;;;;;7.00;99.90;;;;;;4897197;29;19928;-67
2022/11/30 11:59:47;;;;;;;;;;;7.00;99.90;;;;;;4901868;29;19927;-66
2022/11/30 12:02:18;;;;;;;;;;;7.00;99.90;;;;;;4897012;29;20383;-67
2022/11/30 12:04:46;;;;;;;;;;;7.10;99.90;;;;;;4896890;29;19927;-66
2022/11/30 12:07:17;;;;;;;;;;;7.00;99.90;;;;;;4898282;29;19931;-66
2022/11/30 12:09:46;;;;;;;;;;;7.00;99.90;;;;;;4897024;29;20246;-67
2022/11/30 12:12:13;;;;;;;;;;;7.00;99.90;;;;;;4899078;29;20296;-66
2022/11/30 12:14:40;;;;;;;;;;;7.10;99.90;;;;;;4896403;29;19928;-67
2022/11/30 12:17:18;;;;;;;;;;;7.10;99.90;;;;;;4897013;29;19931;-66
2022/11/30 12:19:49;;;;;;;;;;;7.10;99.90;;;;;;4895348;29;19931;-66
2022/11/30 12:22:24;;;;;;;;;;;7.10;99.90;;;;;;4896438;29;19943;-67
2022/11/30 12:24:58;;;;;;;;;;;7.10;99.90;;;;;;4897260;29;19927;-67
2022/11/30 12:27:30;;;;;;;;;;;7.10;99.90;;;;;;4896710;29;19955;-65
2022/11/30 12:30:01;;;;;;;;;;;7.10;99.90;;;;;;4896058;29;19938;-67
2022/11/30 12:32:36;;;;;;;;;;;7.10;99.90;;;;;;4895688;29;19936;-66
2022/11/30 12:35:10;;;;;;;;;;;7.10;99.90;;;;;;4905655;29;19928;-68
2022/11/30 12:37:43;;;;;;;;;;;7.10;99.90;;;;;;4896313;29;19935;-66
2022/11/30 12:40:18;;;;;;;;;;;7.10;99.90;;;;;;4896015;29;19928;-66
2022/11/30 12:42:48;;;;;;;;;;;7.20;99.90;;;;;;4899894;29;19935;-67
2022/11/30 12:45:18;;;;;;;;;;;7.20;99.90;;;;;;4894397;29;20189;-66
2022/11/30 12:47:53;;;;;;;;;;;7.10;99.90;;;;;;4899431;29;19931;-68
2022/11/30 12:50:25;;;;;;;;;;;7.10;99.90;;;;;;4895862;29;19931;-67
2022/11/30 12:52:55;;;;;;;;;;;7.10;99.90;;;;;;4897868;29;19927;-68
2022/11/30 12:55:28;;;;;;;;;;;7.10;99.90;;;;;;4898725;29;19927;-68
2022/11/30 12:57:58;;;;;;;;;;;7.10;99.90;;;;;;4890446;29;19931;-67
2022/11/30 13:00:29;;;;;;;;;;;7.10;99.90;;;;;;4892400;29;19935;-67
2022/11/30 13:03:26;;;;;;;;;;;7.10;99.90;;;;;;4890984;29;20395;-66
2022/11/30 13:05:56;;;;;;;;;;;7.10;99.90;;;;;;4851608;29;19984;-67
2022/11/30 13:08:26;;;;;;;;;;;7.10;99.90;;;;;;4882950;29;19927;-67
2022/11/30 13:10:54;;;;;;;;;;;7.20;99.90;;;;;;4888086;29;20276;-67
2022/11/30 13:13:24;;;;;;;;;;;7.20;99.90;;;;;;4889721;29;19927;-67
2022/11/30 13:15:52;;;;;;;;;;;7.20;99.90;;;;;;4896849;29;19932;-67
2022/11/30 13:18:20;;;;;;;;;;;7.20;99.90;;;;;;4896961;29;19995;-64
2022/11/30 13:20:49;;;;;;;;;;;7.10;99.90;;;;;;4894715;29;19927;-65
2022/11/30 13:23:22;;;;;;;;;;;7.10;99.90;;;;;;4895380;29;19935;-70
2022/11/30 13:25:56;;;;;;;;;;;7.10;99.90;;;;;;4892801;29;19927;-64
2022/11/30 13:28:28;;;;;;;;;;;7.10;99.90;;;;;;4895323;29;19927;-65
2022/11/30 13:30:57;;;;;;;;;;;7.10;99.90;;;;;;4890520;29;19931;-63
2022/11/30 13:33:43;;;;;;;;;;;7.10;99.90;;;;;;4908263;29;19928;-64
2022/11/30 13:36:21;;;;;;;;;;;7.10;99.90;;;;;;4893616;29;19928;-65
2022/11/30 13:39:08;;;;;;;;;;;7.10;99.90;;;;;;4894392;29;19950;-64
2022/11/30 13:41:35;;;;;;;;;;;7.20;99.90;;;;;;4894079;29;20485;-64
2022/11/30 13:44:02;;;;;;;;;;;7.10;99.90;;;;;;4895607;29;19927;-63
2022/11/30 13:46:29;;;;;;;;;;;7.20;99.90;;;;;;4895032;29;19928;-63
2022/11/30 13:49:10;;;;;;;;;;;7.10;99.90;;;;;;4894542;29;19938;-63
2022/11/30 13:51:38;;;;;;;;;;;7.10;99.90;;;;;;4898751;29;19935;-65
2022/11/30 13:54:23;;;;;;;;;;;7.10;99.90;;;;;;4894857;29;19928;-65
2022/11/30 13:56:51;;;;;;;;;;;7.10;99.90;;;;;;4910124;29;19975;-65
2022/11/30 13:59:33;;;;;;;;;;;7.10;99.90;;;;;;4900530;29;19992;-64
2022/11/30 14:02:15;;;;;;;;;;;7.00;99.90;;;;;;4897369;29;19935;-68
2022/11/30 14:04:45;;;;;;;;;;;7.10;99.90;;;;;;4889280;29;19927;-64
2022/11/30 14:07:26;;;;;;;;;;;7.10;99.90;;;;;;4895405;29;20363;-64
2022/11/30 14:10:02;;;;;;;;;;;7.10;99.90;;;;;;4905075;29;20470;-66
2022/11/30 14:12:56;;;;;;;;;;;7.10;99.90;;;;;;4895920;29;19927;-64
2022/11/30 14:15:51;;;;;;;;;;;7.10;99.90;;;;;;4895574;29;20367;-64
2022/11/30 14:18:21;;;;;;;;;;;7.00;99.90;;;;;;4895324;29;19934;-64
2022/11/30 14:20:50;;;;;;;;;;;7.00;99.90;;;;;;4895491;29;19935;-65
2022/11/30 14:23:19;;;;;;;;;;;7.00;99.90;;;;;;4890686;29;19927;-64
2022/11/30 14:25:47;;;;;;;;;;;7.00;99.90;;;;;;4894996;29;19939;-64
2022/11/30 14:28:16;;;;;;;;;;;7.00;99.90;;;;;;4895411;29;19935;-64
2022/11/30 14:30:44;;;;;;;;;;;7.00;99.90;;;;;;4895127;29;20030;-64
2022/11/30 14:33:13;;;;;;;;;;;7.00;99.90;;;;;;4896521;29;19928;-63
2022/11/30 14:35:40;;;;;;;;;;;7.00;99.90;;;;;;4897423;29;19943;-64
2022/11/30 14:38:15;;;;;;;;;;;7.10;99.90;;;;;;4903904;29;20470;-64
2022/11/30 14:40:49;;;;;;;;;;;7.10;99.90;;;;;;4901761;29;19934;-64
2022/11/30 14:43:16;;;;;;;;;;;7.10;99.90;;;;;;4887705;29;19931;-65
2022/11/30 14:45:56;;;;;;;;;;;7.10;99.90;;;;;;4913657;29;19979;-64
2022/11/30 14:48:22;;;;;;;;;;;7.00;99.90;;;;;;4897107;29;19944;-64
2022/11/30 14:50:51;;;;;;;;;;;7.00;99.90;;;;;;4899279;29;19928;-64
2022/11/30 14:53:22;;;;;;;;;;;7.00;99.90;;;;;;4895816;29;20387;-64
2022/11/30 14:55:51;;;;;;;;;;;7.00;99.90;;;;;;4924749;23;19928;-64
2022/11/30 14:58:21;;;;;;;;;;;7.00;99.90;;;;;;4915482;29;19931;-65
2022/11/30 15:00:49;;;;;;;;;;;7.00;99.90;;;;;;4913647;29;19931;-66
2022/11/30 15:03:18;;;;;;;;;;;7.00;99.90;;;;;;4917476;29;19970;-64
2022/11/30 15:05:44;;;;;;;;;;;7.00;99.90;;;;;;4931679;29;19981;-65
2022/11/30 15:08:13;;;;;;;;;;;7.00;99.90;;;;;;4896599;29;19963;-66
2022/11/30 15:10:41;;;;;;;;;;;7.00;99.90;;;;;;4901968;29;19981;-70
2022/11/30 15:13:11;;;;;;;;;;;7.00;99.90;;;;;;4902888;29;20018;-68
2022/11/30 15:15:38;;;;;;;;;;;7.00;99.90;;;;;;4889887;29;19931;-67
2022/11/30 15:18:10;;;;;;;;;;;7.00;99.90;;;;;;4893804;29;19991;-66
2022/11/30 15:20:38;;;;;;;;;;;7.00;99.90;;;;;;4891871;29;19995;-68
2022/11/30 15:23:05;;;;;;;;;;;7.00;99.90;;;;;;4905520;29;19975;-71
2022/11/30 15:25:36;;;;;;;;;;;7.00;99.90;;;;;;4895329;29;20423;-69
2022/11/30 15:28:03;;;;;;;;;;;7.00;99.90;;;;;;4898891;29;19971;-67
2022/11/30 15:30:31;;;;;;;;;;;7.00;99.90;;;;;;4906184;29;19927;-67
2022/11/30 15:32:57;;;;;;;;;;;7.00;99.90;;;;;;4904080;29;19938;-70
2022/11/30 15:35:26;;;;;;;;;;;7.00;99.90;;;;;;4884576;29;19927;-68
2022/11/30 15:37:53;;;;;;;;;;;7.00;99.90;;;;;;4902927;29;19928;-68
2022/11/30 15:40:30;;;;;;;;;;;7.00;99.90;;;;;;4905325;29;19996;-70
2022/11/30 15:42:57;;;;;;;;;;;7.00;99.90;;;;;;4898703;29;19939;-67
2022/11/30 15:45:26;;;;;;;;;;;7.00;99.90;;;;;;4901880;29;19927;-69
2022/11/30 15:47:53;;;;;;;;;;;7.00;99.90;;;;;;4898397;29;19935;-69
2022/11/30 15:50:37;;;;;;;;;;;6.90;99.90;;;;;;4899713;29;19966;-66
2022/11/30 15:53:19;;;;;;;;;;;7.00;99.90;;;;;;4895082;29;19932;-67
2022/11/30 15:55:48;;;;;;;;;;;7.00;99.90;;;;;;4909786;29;19934;-66
2022/11/30 15:58:32;;;;;;;;;;;6.90;99.90;;;;;;4899732;29;19927;-68
2022/11/30 16:01:02;;;;;;;;;;;6.90;99.90;;;;;;4891005;29;19928;-68
2022/11/30 16:03:29;;;;;;;;;;;6.90;99.90;;;;;;4896127;29;19932;-66
2022/11/30 16:05:56;;;;;;;;;;;6.90;99.90;;;;;;4898319;29;20318;-67
2022/11/30 16:08:23;;;;;;;;;;;6.80;99.90;;;;;;4899830;29;19932;-67
2022/11/30 16:10:51;;;;;;;;;;;6.80;99.90;;;;;;4899710;29;19927;-67
2022/11/30 16:13:20;;;;;;;;;;;6.80;99.90;;;;;;4894289;29;19931;-68
2022/11/30 16:15:48;;;;;;;;;;;6.90;99.90;;;;;;4899945;29;19934;-67
2022/11/30 16:18:16;;;;;;;;;;;6.90;99.90;;;;;;4891331;29;19931;-67
2022/11/30 16:20:43;;;;;;;;;;;6.90;99.90;;;;;;4894185;29;19931;-67
2022/11/30 16:23:13;;;;;;;;;;;6.90;99.90;;;;;;4895279;29;19928;-66
2022/11/30 16:25:40;;;;;;;;;;;6.90;99.90;;;;;;4891145;29;19934;-67
2022/11/30 16:28:09;;;;;;;;;;;6.90;99.90;;;;;;4886181;29;19928;-67
2022/11/30 16:30:36;;;;;;;;;;;6.90;99.90;;;;;;4895864;29;19928;-67
2022/11/30 16:33:03;;;;;;;;;;;6.90;99.90;;;;;;4903593;29;19935;-67
2022/11/30 16:35:35;;;;;;;;;;;6.80;99.90;;;;;;4903836;29;19931;-67
2022/11/30 16:38:01;;;;;;;;;;;6.80;99.90;;;;;;4904865;29;19927;-67
2022/11/30 16:40:29;;;;;;;;;;;6.80;99.90;;;;;;4903309;29;19931;-68
2022/11/30 16:42:55;;;;;;;;;;;6.80;99.90;;;;;;4898085;29;19978;-69
2022/11/30 16:45:24;;;;;;;;;;;6.80;99.90;;;;;;4902069;29;19927;-69
2022/11/30 16:47:51;;;;;;;;;;;6.80;99.90;;;;;;4893883;29;19935;-65
2022/11/30 16:50:18;;;;;;;;;;;6.80;99.90;;;;;;4897592;29;19954;-67
2022/11/30 16:52:45;;;;;;;;;;;6.80;99.90;;;;;;4905547;29;19927;-65
2022/11/30 16:55:13;;;;;;;;;;;6.70;99.90;;;;;;4899289;29;19934;-67
2022/11/30 16:57:40;;;;;;;;;;;6.70;99.90;;;;;;4901676;29;20026;-65
2022/11/30 17:00:08;;;;;;;;;;;6.70;99.90;;;;;;4899740;29;19931;-67
2022/11/30 17:02:38;;;;;;;;;;;6.70;99.90;;;;;;4904545;29;20364;-68
2022/11/30 17:05:06;;;;;;;;;;;6.80;99.90;;;;;;4900236;29;19935;-67
2022/11/30 17:07:35;;;;;;;;;;;6.70;99.90;;;;;;4892137;29;20026;-66
2022/11/30 17:10:02;;;;;;;;;;;6.70;99.90;;;;;;4887548;29;19983;-67
2022/11/30 17:12:29;;;;;;;;;;;6.70;99.90;;;;;;4888793;29;19931;-67
2022/11/30 17:14:56;;;;;;;;;;;6.70;99.90;;;;;;4883714;29;19927;-66
2022/11/30 17:17:22;;;;;;;;;;;6.70;99.90;;;;;;4890314;29;19931;-67
2022/11/30 17:19:51;;;;;;;;;;;6.70;99.90;;;;;;4915613;29;19931;-67
2022/11/30 17:22:17;;;;;;;;;;;6.80;99.90;;;;;;4897554;29;19927;-66
2022/11/30 17:24:44;;;;;;;;;;;6.70;99.90;;;;;;4884639;29;19941;-69
2022/11/30 17:27:11;;;;;;;;;;;6.70;99.90;;;;;;4889318;29;20014;-67
2022/11/30 17:29:38;;;;;;;;;;;6.70;99.90;;;;;;4894821;29;20451;-67
2022/11/30 17:32:05;;;;;;;;;;;6.70;99.90;;;;;;4900044;29;19936;-67
2022/11/30 17:34:32;;;;;;;;;;;6.70;99.90;;;;;;4906707;29;19928;-66
2022/11/30 17:37:00;;;;;;;;;;;6.60;99.90;;;;;;4894874;29;19939;-66
2022/11/30 17:39:27;;;;;;;;;;;6.60;99.90;;;;;;4891028;29;19987;-67
2022/11/30 17:41:54;;;;;;;;;;;6.60;99.90;;;;;;4904255;29;20283;-67
2022/11/30 17:44:20;;;;;;;;;;;6.60;99.90;;;;;;4888662;29;19928;-66
2022/11/30 17:46:48;;;;;;;;;;;6.60;99.90;;;;;;4904337;29;19936;-67
2022/11/30 17:49:14;;;;;;;;;;;6.60;99.90;;;;;;4897760;29;19935;-66
2022/11/30 17:51:41;;;;;;;;;;;6.60;99.90;;;;;;4909210;29;19928;-67
2022/11/30 17:54:10;;;;;;;;;;;6.70;99.90;;;;;;4900496;29;20365;-67
2022/11/30 17:56:37;;;;;;;;;;;6.70;99.90;;;;;;4904651;29;20346;-67
2022/11/30 17:59:04;;;;;;;;;;;6.70;99.90;;;;;;4905401;29;19927;-73
2022/11/30 18:01:30;;;;;;;;;;;6.70;99.90;;;;;;4899589;29;19927;-66
2022/11/30 18:03:57;;;;;;;;;;;6.70;99.90;;;;;;4897031;29;19934;-66
2022/11/30 18:06:24;;;;;;;;;;;6.70;99.90;;;;;;4897153;29;19927;-67
2022/11/30 18:08:51;;;;;;;;;;;6.70;99.90;;;;;;4901466;29;19930;-74
2022/11/30 18:11:21;;;;;;;;;;;6.60;99.90;;;;;;4894247;29;20051;-66
2022/11/30 18:13:48;;;;;;;;;;;6.60;99.90;;;;;;4886966;29;19928;-66
2022/11/30 18:16:17;;;;;;;;;;;6.60;99.90;;;;;;4882372;29;19935;-66
2022/11/30 18:18:44;;;;;;;;;;;6.60;99.90;;;;;;4887844;29;19935;-65
2022/11/30 18:21:14;;;;;;;;;;;6.60;99.90;;;;;;4900322;29;20527;-66
2022/11/30 18:23:41;;;;;;;;;;;6.60;99.90;;;;;;4904575;29;19973;-66
2022/11/30 18:26:10;;;;;;;;;;;6.70;99.90;;;;;;4897829;29;19935;-68
2022/11/30 18:28:38;;;;;;;;;;;6.70;99.90;;;;;;4900969;29;19935;-65
2022/11/30 18:31:05;;;;;;;;;;;6.70;99.90;;;;;;4903073;29;19990;-67
2022/11/30 18:33:32;;;;;;;;;;;6.70;99.90;;;;;;4911281;29;19975;-68
2022/11/30 18:35:59;;;;;;;;;;;6.70;99.90;;;;;;4901389;29;19931;-67
2022/11/30 18:38:26;;;;;;;;;;;6.70;99.90;;;;;;4913305;29;19927;-68
2022/11/30 18:40:53;;;;;;;;;;;6.70;99.90;;;;;;4911036;29;19978;-67
2022/11/30 18:43:19;;;;;;;;;;;6.70;99.90;;;;;;4898372;29;20356;-66
2022/11/30 18:45:48;;;;;;;;;;;6.70;99.90;;;;;;4900661;29;19928;-66